Time;durP1;ratioP1;P1;durP2;ratioP2;P2;SDS_P1;SDS_P2;PMS_P1;PMS_P2;Temp;Humidity;BMP_temperature;BMP_pressure;BME280_temperature;BME280_humidity;BME280_pressure;Samples;Min_cycle;Max_cycle;Signal;HPM_P1;HPM_P2
2022/02/12 00:02:40;;;;;;;7.40;4.10;;;;;;;1.49;81.74;101124.27;130314;1267;109017;-79
2022/02/12 00:05:45;;;;;;;10.80;5.00;;;;;;;1.48;81.57;101133.42;130211;1268;108902;-77
2022/02/12 00:08:50;;;;;;;8.90;4.10;;;;;;;1.42;81.47;101140.58;130293;1266;109045;-77
2022/02/12 00:11:57;;;;;;;7.80;4.00;;;;;;;1.35;81.60;101149.12;130303;1266;108669;-76
2022/02/12 00:15:03;;;;;;;8.80;3.90;;;;;;;1.27;81.37;101156.86;130257;1267;108745;-75
2022/02/12 00:18:08;;;;;;;6.90;3.10;;;;;;;1.22;81.06;101156.79;130253;1267;108760;-75
2022/02/12 00:21:14;;;;;;;7.80;3.40;;;;;;;1.20;81.26;101157.40;130290;1267;108937;-77
2022/02/12 00:24:19;;;;;;;7.70;3.50;;;;;;;1.22;81.41;101172.55;130291;1267;108907;-76
2022/02/12 00:27:25;;;;;;;9.10;3.10;;;;;;;1.19;81.18;101180.20;130267;1267;108738;-76
2022/02/12 00:30:30;;;;;;;12.10;5.70;;;;;;;1.17;81.33;101183.77;130291;1267;108878;-76
2022/02/12 00:33:35;;;;;;;17.80;7.50;;;;;;;1.19;81.55;101187.90;130310;1267;108898;-77
2022/02/12 00:36:41;;;;;;;8.80;3.10;;;;;;;1.23;81.74;101200.00;130321;1267;108915;-78
2022/02/12 00:39:47;;;;;;;7.10;3.60;;;;;;;1.23;81.36;101214.55;130332;1267;108828;-78
2022/02/12 00:42:53;;;;;;;8.70;4.30;;;;;;;1.20;81.49;101215.39;130258;1267;108706;-78
2022/02/12 00:45:58;;;;;;;14.70;6.40;;;;;;;1.17;81.57;101228.47;130246;1267;108749;-78
2022/02/12 00:49:04;;;;;;;19.10;9.90;;;;;;;1.16;81.66;101231.31;130273;1267;106582;-77
2022/02/12 00:52:11;;;;;;;9.90;3.80;;;;;;;1.19;81.62;101233.80;130300;1266;107366;-80
2022/02/12 00:55:16;;;;;;;16.00;7.30;;;;;;;1.23;81.67;101240.69;130383;1267;106838;-79
2022/02/12 00:58:22;;;;;;;15.00;7.30;;;;;;;1.22;81.51;101246.31;130353;1267;108802;-79
2022/02/12 01:01:27;;;;;;;13.80;5.70;;;;;;;1.18;81.38;101252.59;130409;1267;108852;-79
2022/02/12 01:04:33;;;;;;;20.80;9.40;;;;;;;1.13;81.31;101257.20;130310;1267;108670;-75
2022/02/12 01:07:39;;;;;;;10.70;5.60;;;;;;;1.10;81.47;101268.02;130353;1267;108871;-77
2022/02/12 01:10:44;;;;;;;12.70;5.50;;;;;;;1.04;81.24;101281.98;130196;1268;107479;-73
2022/02/12 01:13:49;;;;;;;12.00;4.50;;;;;;;1.00;81.59;101285.13;130170;1268;108822;-74
2022/02/12 01:16:55;;;;;;;39.00;16.50;;;;;;;0.96;81.47;101284.92;130302;1267;108780;-74
2022/02/12 01:20:01;;;;;;;8.90;4.40;;;;;;;0.96;81.50;101290.17;130313;1267;108747;-74
2022/02/12 01:23:06;;;;;;;10.40;3.30;;;;;;;0.98;81.40;101291.84;130335;1267;108423;-75
2022/02/12 01:26:11;;;;;;;36.90;18.20;;;;;;;1.01;81.27;101302.77;130336;1266;109050;-76
2022/02/12 01:29:17;;;;;;;18.10;8.20;;;;;;;1.01;81.30;101302.08;130307;1267;107720;-76
2022/02/12 01:32:23;;;;;;;15.10;7.00;;;;;;;1.02;81.44;101301.52;130266;1267;109181;-77
2022/02/12 01:35:29;;;;;;;11.90;6.70;;;;;;;0.98;81.28;101310.76;130266;1267;109063;-77
2022/02/12 01:38:35;;;;;;;5.20;2.30;;;;;;;0.99;81.13;101319.33;130275;1267;108765;-79
2022/02/12 01:41:40;;;;;;;6.10;2.80;;;;;;;1.00;80.96;101321.74;130305;1267;108882;-77
2022/02/12 01:44:46;;;;;;;8.00;3.40;;;;;;;0.95;80.63;101327.88;130345;1267;109011;-77
2022/02/12 01:47:51;;;;;;;6.70;2.90;;;;;;;0.91;80.92;101326.87;130341;1267;108793;-77
2022/02/12 01:50:58;;;;;;;5.70;3.10;;;;;;;0.86;80.80;101336.34;130318;1266;108962;-78
2022/02/12 01:54:04;;;;;;;5.80;2.80;;;;;;;0.84;80.43;101344.16;130321;1267;108723;-77
2022/02/12 01:57:10;;;;;;;5.80;2.80;;;;;;;0.71;80.43;101341.32;130334;1267;107757;-77
2022/02/12 02:00:18;;;;;;;6.00;3.00;;;;;;;0.64;80.63;101351.24;130356;1267;108724;-77
2022/02/12 02:03:24;;;;;;;7.00;2.80;;;;;;;0.57;80.84;101365.35;130383;1267;109478;-79
2022/02/12 02:06:29;;;;;;;8.10;3.00;;;;;;;0.49;81.42;101369.02;130258;1267;108977;-80
2022/02/12 02:09:35;;;;;;;6.50;2.80;;;;;;;0.41;81.62;101366.18;130301;1267;108889;-80
2022/02/12 02:12:41;;;;;;;6.30;2.90;;;;;;;0.37;81.92;101369.13;130332;1266;108767;-75
2022/02/12 02:15:46;;;;;;;8.20;2.60;;;;;;;0.33;82.12;101378.89;130305;1267;108844;-76
2022/02/12 02:18:51;;;;;;;7.20;3.10;;;;;;;0.28;82.13;101389.27;130344;1267;108873;-76
2022/02/12 02:21:59;;;;;;;5.80;2.80;;;;;;;0.21;82.42;101395.46;130532;1267;109643;-76
2022/02/12 02:25:04;;;;;;;7.20;3.00;;;;;;;0.13;82.62;101401.38;130313;1267;108900;-76
2022/02/12 02:28:10;;;;;;;8.70;2.70;;;;;;;0.06;82.57;101406.55;130306;1267;107903;-77
2022/02/12 02:31:15;;;;;;;6.00;2.50;;;;;;;0.01;82.87;101412.31;130316;1267;108709;-76
2022/02/12 02:34:20;;;;;;;8.40;2.80;;;;;;;-0.00;82.85;101415.52;130320;1267;106695;-76
2022/02/12 02:37:27;;;;;;;7.00;2.60;;;;;;;-0.00;82.84;101428.98;130281;1267;108841;-76
2022/02/12 02:40:33;;;;;;;6.90;2.90;;;;;;;-0.05;82.60;101437.39;130294;1267;108768;-76
2022/02/12 02:43:40;;;;;;;5.90;2.70;;;;;;;-0.14;83.27;101445.94;130246;1267;108697;-77
2022/02/12 02:46:45;;;;;;;6.60;2.50;;;;;;;-0.22;83.36;101453.37;130326;1267;108832;-77
2022/02/12 02:49:50;;;;;;;6.30;2.50;;;;;;;-0.25;83.37;101448.92;130300;1267;108754;-77
2022/02/12 02:56:20;;;;;;;9.00;5.50;;;;;;;-0.27;83.30;101461.28;130354;1267;108918;-77
2022/02/12 02:59:27;;;;;;;5.00;2.40;;;;;;;-0.30;83.42;101464.87;130397;1267;109797;-78
2022/02/12 03:02:32;;;;;;;10.10;3.20;;;;;;;-0.36;83.39;101468.04;130719;1266;108747;-79
2022/02/12 03:05:38;;;;;;;10.60;5.50;;;;;;;-0.37;83.42;101473.52;130494;1267;108970;-76
2022/02/12 03:08:43;;;;;;;17.30;8.50;;;;;;;-0.38;83.57;101482.63;130331;1267;108699;-77
2022/02/12 03:11:49;;;;;;;28.10;13.30;;;;;;;-0.37;83.44;101492.90;130312;1267;108826;-78
2022/02/12 03:14:54;;;;;;;53.20;24.70;;;;;;;-0.32;83.05;101496.77;130291;1267;108889;-77
2022/02/12 03:18:00;;;;;;;11.60;5.50;;;;;;;-0.31;82.87;101507.23;130334;1267;108890;-76
2022/02/12 03:21:06;;;;;;;13.70;5.80;;;;;;;-0.33;83.14;101514.63;130284;1267;107864;-77
2022/02/12 03:24:11;;;;;;;13.40;5.50;;;;;;;-0.34;82.82;101524.45;130328;1267;108231;-77
2022/02/12 03:27:16;;;;;;;15.60;7.30;;;;;;;-0.32;82.81;101534.17;130314;1267;108738;-77
2022/02/12 03:30:22;;;;;;;17.70;8.00;;;;;;;-0.30;82.81;101542.34;130325;1267;108694;-77
2022/02/12 03:33:28;;;;;;;8.70;3.60;;;;;;;-0.31;82.88;101554.25;130333;1264;106731;-77
2022/02/12 03:36:33;;;;;;;12.50;5.70;;;;;;;-0.31;82.77;101554.61;130341;1267;108911;-77
2022/02/12 03:39:39;;;;;;;12.60;5.70;;;;;;;-0.33;82.73;101557.99;130259;1267;107472;-76
2022/02/12 03:42:45;;;;;;;10.20;5.70;;;;;;;-0.35;82.82;101559.11;130354;1267;108837;-81
2022/02/12 03:45:51;;;;;;;9.20;3.70;;;;;;;-0.40;82.95;101569.92;130304;1267;108754;-79
2022/02/12 03:48:56;;;;;;;10.60;4.10;;;;;;;-0.50;83.17;101573.39;130336;1267;108819;-79
2022/02/12 03:52:02;;;;;;;5.50;2.70;;;;;;;-0.55;83.29;101571.98;130345;1267;108542;-77
2022/02/12 03:55:09;;;;;;;7.90;3.20;;;;;;;-0.53;83.55;101577.53;130310;1267;108460;-77
2022/02/12 03:58:17;;;;;;;7.00;3.60;;;;;;;-0.53;83.48;101575.26;130354;1267;107328;-75
2022/02/12 04:01:23;;;;;;;7.20;2.90;;;;;;;-0.55;83.58;101578.98;130370;1267;108862;-75
2022/02/12 04:04:28;;;;;;;6.50;2.70;;;;;;;-0.58;83.52;101585.55;130310;1267;108808;-74
2022/02/12 04:07:37;;;;;;;6.50;2.50;;;;;;;-0.60;83.50;101590.15;130248;1267;107484;-75
2022/02/12 04:10:42;;;;;;;7.90;2.40;;;;;;;-0.60;83.38;101596.43;130329;1267;108770;-75
2022/02/12 04:13:48;;;;;;;4.80;2.40;;;;;;;-0.60;83.76;101602.90;130311;1266;108947;-75
2022/02/12 04:16:53;;;;;;;6.70;2.60;;;;;;;-0.58;83.62;101614.55;130333;1267;107707;-76
2022/02/12 04:20:02;;;;;;;8.70;2.80;;;;;;;-0.59;83.61;101616.69;130345;1267;108912;-75
2022/02/12 04:23:07;;;;;;;7.10;2.30;;;;;;;-0.59;83.19;101622.98;130345;1267;108737;-77
2022/02/12 04:26:13;;;;;;;5.70;2.50;;;;;;;-0.60;83.23;101628.93;130321;1267;109045;-76
2022/02/12 04:29:18;;;;;;;6.70;2.60;;;;;;;-0.59;83.27;101637.83;130303;1267;108832;-76
2022/02/12 04:32:24;;;;;;;7.30;2.30;;;;;;;-0.60;83.37;101639.96;130298;1267;108911;-77
2022/02/12 04:35:30;;;;;;;7.00;2.50;;;;;;;-0.60;83.40;101642.75;130327;1266;108736;-76
2022/02/12 04:38:36;;;;;;;5.80;2.30;;;;;;;-0.61;83.56;101646.10;130251;1265;109109;-76
2022/02/12 04:41:41;;;;;;;5.10;2.00;;;;;;;-0.61;83.31;101638.75;130337;1267;108956;-78
2022/02/12 04:44:49;;;;;;;6.20;2.20;;;;;;;-0.64;83.21;101645.14;130354;1267;108563;-78
2022/02/12 04:47:55;;;;;;;7.90;2.20;;;;;;;-0.68;83.26;101650.67;130297;1267;108847;-79
2022/02/12 04:51:01;;;;;;;6.00;2.60;;;;;;;-0.70;83.44;101654.06;130347;1267;108687;-77
2022/02/12 04:54:07;;;;;;;7.20;2.50;;;;;;;-0.70;83.41;101649.16;130328;1267;107551;-78
2022/02/12 04:57:12;;;;;;;4.60;2.30;;;;;;;-0.64;83.38;101651.98;130327;1267;107729;-78
2022/02/12 05:00:19;;;;;;;5.60;2.60;;;;;;;-0.62;83.47;101659.06;130258;1267;107857;-78
2022/02/12 05:03:24;;;;;;;5.60;2.50;;;;;;;-0.64;83.38;101664.53;130424;1267;108853;-78
2022/02/12 05:06:30;;;;;;;6.00;2.60;;;;;;;-0.65;83.29;101669.29;130301;1267;108680;-78
2022/02/12 05:09:37;;;;;;;6.00;2.30;;;;;;;-0.68;83.58;101671.48;130345;1267;107562;-77
2022/02/12 05:12:43;;;;;;;5.40;2.50;;;;;;;-0.73;83.48;101674.41;130397;1267;107818;-77
2022/02/12 05:15:49;;;;;;;6.30;2.80;;;;;;;-0.79;83.93;101675.83;130348;1267;108897;-79
2022/02/12 05:18:54;;;;;;;6.30;3.00;;;;;;;-0.82;83.72;101675.92;130339;1267;109768;-79
2022/02/12 05:21:59;;;;;;;7.00;2.70;;;;;;;-0.85;83.79;101682.65;130345;1267;108847;-79
2022/02/12 05:25:07;;;;;;;7.10;2.70;;;;;;;-0.86;84.23;101683.89;130330;1267;107712;-75
2022/02/12 05:28:13;;;;;;;6.30;2.70;;;;;;;-0.86;83.73;101694.04;130299;1267;108794;-75
2022/02/12 05:31:18;;;;;;;9.10;3.40;;;;;;;-0.83;83.77;101701.44;130356;1267;108721;-77
2022/02/12 05:34:24;;;;;;;11.20;4.10;;;;;;;-0.83;83.87;101706.35;130350;1267;106074;-75
2022/02/12 05:37:29;;;;;;;7.80;3.30;;;;;;;-0.88;84.11;101708.92;130300;1267;108812;-77
2022/02/12 05:40:34;;;;;;;5.80;2.20;;;;;;;-0.97;84.28;101705.53;130271;1267;108749;-79
2022/02/12 05:43:40;;;;;;;5.40;2.60;;;;;;;-1.02;84.19;101704.96;130374;1267;106856;-79
2022/02/12 05:46:46;;;;;;;8.20;4.10;;;;;;;-1.01;84.25;101707.73;130480;1267;107684;-78
2022/02/12 05:49:51;;;;;;;7.30;3.00;;;;;;;-1.00;84.49;101709.63;130461;1267;109002;-79
2022/02/12 05:52:57;;;;;;;8.40;3.60;;;;;;;-1.01;84.02;101715.07;130458;1268;108817;-79
2022/02/12 05:56:03;;;;;;;29.80;14.30;;;;;;;-1.03;84.29;101716.86;130810;1267;106633;-78
2022/02/12 05:59:12;;;;;;;12.60;6.90;;;;;;;-1.05;84.00;101716.59;130511;1267;108744;-78
2022/02/12 06:02:17;;;;;;;9.80;3.60;;;;;;;-1.07;84.08;101718.36;130356;1267;107659;-77
2022/02/12 06:05:23;;;;;;;11.60;5.30;;;;;;;-1.10;84.09;101729.10;130315;1267;108964;-80
2022/02/12 06:08:28;;;;;;;12.40;4.60;;;;;;;-1.06;83.95;101737.91;130345;1267;108725;-77
2022/02/12 06:11:34;;;;;;;7.20;2.80;;;;;;;-1.00;83.89;101743.15;130302;1267;107380;-77
2022/02/12 06:14:39;;;;;;;7.60;4.10;;;;;;;-0.93;83.93;101741.56;130360;1267;108675;-76
2022/02/12 06:17:45;;;;;;;210.50;70.30;;;;;;;-0.83;83.75;101744.24;130357;1267;108874;-76
2022/02/12 06:20:50;;;;;;;26.30;10.50;;;;;;;-0.76;83.45;101748.95;130333;1267;108767;-77
2022/02/12 06:23:55;;;;;;;13.40;4.40;;;;;;;-0.76;83.50;101748.96;130337;1267;107744;-77
2022/02/12 06:27:04;;;;;;;19.00;7.40;;;;;;;-0.84;83.66;101756.50;130336;1267;108768;-77
2022/02/12 06:30:10;;;;;;;43.90;18.10;;;;;;;-0.90;83.64;101761.73;130313;1267;108778;-79
2022/02/12 06:33:16;;;;;;;9.60;4.10;;;;;;;-0.95;83.74;101763.46;130278;1267;108731;-79
2022/02/12 06:36:22;;;;;;;15.70;6.20;;;;;;;-0.96;83.86;101766.27;130538;1267;108816;-83
2022/02/12 06:39:27;;;;;;;16.30;7.00;;;;;;;-0.89;83.76;101770.28;130424;1267;108931;-78
2022/02/12 06:42:32;;;;;;;66.00;22.50;;;;;;;-0.80;83.65;101774.05;130404;1267;108955;-77
2022/02/12 06:45:39;;;;;;;253.90;87.80;;;;;;;-0.69;83.61;101782.13;130409;1267;108878;-78
2022/02/12 06:48:45;;;;;;;123.50;44.10;;;;;;;-0.59;83.47;101785.69;130437;1268;109719;-79
2022/02/12 06:51:51;;;;;;;94.50;41.50;;;;;;;-0.49;83.34;101791.70;130387;1268;107956;-78
2022/02/12 06:54:56;;;;;;;137.90;59.80;;;;;;;-0.40;83.16;101791.96;130453;1268;108865;-79
2022/02/12 06:58:02;;;;;;;27.90;13.30;;;;;;;-0.37;83.14;101792.60;130547;1268;106992;-77
2022/02/12 07:01:07;;;;;;;99.10;43.00;;;;;;;-0.35;83.09;101796.17;130593;1266;108477;-79
2022/02/12 07:04:13;;;;;;;33.90;15.60;;;;;;;-0.27;83.14;101806.77;130604;1266;109046;-77
2022/02/12 07:07:19;;;;;;;45.60;16.00;;;;;;;-0.16;83.11;101811.00;130594;1268;106924;-77
2022/02/12 07:10:29;;;;;;;25.90;9.90;;;;;;;-0.10;82.91;101814.52;130741;1268;108740;-80
2022/02/12 07:13:42;;;;;;;24.10;7.60;;;;;;;-0.04;82.95;101825.70;130277;1268;109901;-77
2022/02/12 07:16:47;;;;;;;13.00;5.50;;;;;;;0.00;82.99;101828.55;130229;1268;108937;-77
2022/02/12 07:19:53;;;;;;;69.80;27.70;;;;;;;0.02;82.66;101832.02;130216;1268;108653;-81
2022/02/12 07:22:58;;;;;;;22.30;8.30;;;;;;;-0.03;82.79;101834.76;130393;1268;108686;-79
2022/02/12 07:26:04;;;;;;;45.10;17.30;;;;;;;-0.06;82.95;101839.58;130183;1268;108708;-76
2022/02/12 07:29:09;;;;;;;37.70;16.80;;;;;;;-0.07;82.95;101846.93;130527;1268;107851;-76
2022/02/12 07:32:14;;;;;;;20.30;9.20;;;;;;;0.02;83.25;101844.05;130239;1268;108900;-81
2022/02/12 07:35:20;;;;;;;19.50;8.80;;;;;;;0.16;82.86;101847.30;130510;1268;107444;-81
2022/02/12 07:38:26;;;;;;;17.60;8.30;;;;;;;0.23;82.70;101853.20;130886;1268;108893;-81
2022/02/12 07:41:34;;;;;;;13.60;6.10;;;;;;;0.32;82.68;101854.84;131947;1267;108551;-76
2022/02/12 07:44:39;;;;;;;12.80;6.90;;;;;;;0.40;82.33;101865.30;131100;1268;107469;-77
2022/02/12 07:47:45;;;;;;;10.30;5.30;;;;;;;0.44;82.47;101874.44;130591;1268;108275;-76
2022/02/12 07:50:53;;;;;;;12.00;5.30;;;;;;;0.47;82.04;101877.70;130272;1268;107841;-77
2022/02/12 07:53:59;;;;;;;14.60;5.80;;;;;;;0.44;82.18;101870.08;130265;1269;108580;-77
2022/02/12 07:57:05;;;;;;;16.10;8.40;;;;;;;0.45;82.26;101872.84;130231;1268;108837;-81
2022/02/12 08:00:13;;;;;;;75.80;32.30;;;;;;;0.50;82.37;101874.27;130298;1268;109281;-81
2022/02/12 08:03:19;;;;;;;31.70;14.00;;;;;;;0.56;82.34;101878.08;130263;1268;107239;-83
2022/02/12 08:09:47;;;;;;;110.00;46.10;;;;;;;0.76;82.29;101889.38;130172;1268;108773;-79
2022/02/12 08:12:53;;;;;;;16.60;7.40;;;;;;;0.87;81.74;101896.02;130415;1268;107650;-78
2022/02/12 08:15:58;;;;;;;26.90;11.60;;;;;;;0.83;81.27;101891.41;130338;1268;106653;-80
2022/02/12 08:19:04;;;;;;;123.60;54.80;;;;;;;0.83;81.55;101894.05;130421;1268;109178;-80
2022/02/12 08:22:10;;;;;;;63.80;27.90;;;;;;;0.86;80.97;101889.04;130422;1268;108541;-81
2022/02/12 08:25:16;;;;;;;111.20;50.20;;;;;;;0.83;81.30;101890.90;130160;1270;108648;-78
2022/02/12 08:28:21;;;;;;;21.60;10.00;;;;;;;0.87;81.31;101900.58;130328;1268;108600;-80
2022/02/12 08:31:27;;;;;;;17.10;5.80;;;;;;;0.89;81.26;101913.15;130280;1268;108835;-83
2022/02/12 08:34:32;;;;;;;91.90;40.10;;;;;;;0.91;81.10;101907.98;130387;1268;109787;-85
2022/02/12 08:37:40;;;;;;;38.90;19.20;;;;;;;1.04;81.42;101910.18;130397;1268;108830;-83
2022/02/12 08:40:45;;;;;;;26.00;11.90;;;;;;;1.16;80.95;101913.44;130356;1268;108930;-84
2022/02/12 08:43:50;;;;;;;14.00;5.60;;;;;;;1.25;80.42;101917.37;130417;1268;107901;-82
2022/02/12 08:46:56;;;;;;;36.70;19.50;;;;;;;1.27;80.03;101922.89;130443;1268;108795;-83
2022/02/12 08:50:01;;;;;;;48.70;25.20;;;;;;;1.30;80.15;101927.71;130403;1268;108786;-81
2022/02/12 08:53:07;;;;;;;47.30;25.10;;;;;;;1.35;80.23;101935.23;130663;1268;108684;-80
2022/02/12 08:56:12;;;;;;;21.80;12.00;;;;;;;1.37;79.08;101938.52;130409;1268;108756;-80
2022/02/12 08:59:18;;;;;;;41.50;23.00;;;;;;;1.36;78.99;101948.19;130391;1268;108952;-80
2022/02/12 09:02:24;;;;;;;11.60;5.70;;;;;;;1.39;78.16;101950.02;130318;1268;108773;-82
2022/02/12 09:05:29;;;;;;;40.70;19.80;;;;;;;1.38;78.39;101953.74;130399;1268;108842;-82
2022/02/12 09:08:35;;;;;;;32.60;16.10;;;;;;;1.43;78.75;101955.50;130413;1268;108672;-82
2022/02/12 09:11:43;;;;;;;29.30;15.50;;;;;;;1.46;77.97;101959.94;130407;1268;108799;-82
2022/02/12 09:14:48;;;;;;;9.00;4.80;;;;;;;1.52;78.20;101966.23;130449;1268;108762;-82
2022/02/12 09:17:54;;;;;;;25.40;9.90;;;;;;;1.59;77.19;101967.93;130399;1268;108703;-81
2022/02/12 09:21:00;;;;;;;47.10;17.30;;;;;;;1.66;78.28;101968.21;130426;1268;108454;-81
2022/02/12 09:24:06;;;;;;;127.30;55.80;;;;;;;1.80;78.75;101973.52;130229;1268;108670;-82
2022/02/12 09:27:11;;;;;;;34.30;16.20;;;;;;;1.92;78.72;101974.13;130438;1268;106607;-81
2022/02/12 09:30:16;;;;;;;29.10;16.00;;;;;;;2.01;78.52;101971.21;130388;1267;108842;-82
2022/02/12 09:33:22;;;;;;;15.80;7.00;;;;;;;2.05;78.15;101979.80;130240;1268;108947;-81
2022/02/12 09:36:28;;;;;;;6.70;3.30;;;;;;;2.04;75.92;101983.20;130433;1268;108182;-82
2022/02/12 09:39:33;;;;;;;8.70;3.80;;;;;;;1.96;74.23;101990.15;130381;1268;108728;-81
2022/02/12 09:42:39;;;;;;;11.80;5.00;;;;;;;1.90;75.01;101991.55;130377;1268;108715;-82
2022/02/12 09:45:52;;;;;;;56.10;28.50;;;;;;;1.91;76.34;101991.35;130372;1268;107181;-81
2022/02/12 09:48:59;;;;;;;17.70;7.70;;;;;;;2.00;76.91;101989.13;130379;1268;107255;-81
2022/02/12 09:52:05;;;;;;;13.30;6.40;;;;;;;2.04;75.05;101995.29;130405;1267;108941;-81
2022/02/12 09:55:11;;;;;;;59.90;31.80;;;;;;;2.05;76.00;101997.38;130270;1268;107761;-81
2022/02/12 09:58:18;;;;;;;35.70;16.40;;;;;;;2.09;76.53;101993.34;130410;1268;108564;-81
2022/02/12 10:01:23;;;;;;;35.60;20.00;;;;;;;2.18;76.07;101999.16;130424;1268;108858;-81
2022/02/12 10:04:31;;;;;;;11.80;6.60;;;;;;;2.20;75.51;102004.70;130402;1268;108778;-82
2022/02/12 10:07:37;;;;;;;49.60;24.80;;;;;;;2.15;72.57;102007.19;130403;1268;106770;-81
2022/02/12 10:10:43;;;;;;;18.10;7.90;;;;;;;2.16;75.25;102007.31;130427;1268;108755;-81
2022/02/12 10:13:48;;;;;;;32.30;16.90;;;;;;;2.19;73.64;102003.35;130307;1268;108423;-81
2022/02/12 10:17:00;;;;;;;13.50;6.70;;;;;;;2.23;74.87;101993.22;130316;1268;106189;-81
2022/02/12 10:20:06;;;;;;;45.10;21.40;;;;;;;2.30;74.40;101991.70;130359;1268;107708;-81
2022/02/12 10:23:14;;;;;;;13.20;7.10;;;;;;;2.34;74.49;101988.73;130294;1268;109154;-80
2022/02/12 10:26:19;;;;;;;6.10;3.60;;;;;;;2.39;72.85;101991.74;130030;1268;324687;-80
2022/02/12 10:29:25;;;;;;;13.00;6.60;;;;;;;2.38;73.07;101994.42;130278;1268;108853;-81
2022/02/12 10:32:30;;;;;;;15.20;7.90;;;;;;;2.40;74.29;101992.92;130298;1268;107684;-80
2022/02/12 10:35:37;;;;;;;18.10;6.80;;;;;;;2.49;74.18;102002.92;130240;1268;108946;-80
2022/02/12 10:38:48;;;;;;;14.40;7.70;;;;;;;2.55;73.72;102002.90;130268;1268;108839;-81
2022/02/12 10:42:08;;;;;;;11.60;6.20;;;;;;;2.61;74.00;102009.19;130270;1268;106466;-81
2022/02/12 10:45:16;;;;;;;9.30;3.90;;;;;;;2.67;74.00;102003.33;130341;1268;108854;-80
2022/02/12 10:48:24;;;;;;;9.90;5.60;;;;;;;2.72;73.81;101996.78;130261;1268;108807;-80
2022/02/12 10:51:31;;;;;;;13.30;7.40;;;;;;;2.79;73.84;101996.88;130259;1268;107811;-80
2022/02/12 10:54:44;;;;;;;10.40;5.10;;;;;;;2.84;73.91;101995.48;130294;1268;107480;-80
2022/02/12 10:57:49;;;;;;;9.90;4.90;;;;;;;2.90;74.04;101989.95;130293;1268;107879;-82
2022/02/12 11:00:56;;;;;;;8.10;4.70;;;;;;;2.95;73.88;101989.20;130335;1268;108791;-81
2022/02/12 11:04:02;;;;;;;8.50;4.20;;;;;;;3.01;73.72;101984.77;130308;1268;108642;-80
2022/02/12 11:07:09;;;;;;;11.70;5.80;;;;;;;3.07;73.69;101972.21;130294;1268;108880;-80
2022/02/12 11:10:16;;;;;;;10.50;4.90;;;;;;;3.12;73.76;101982.02;130280;1268;108759;-82
2022/02/12 11:13:22;;;;;;;12.30;5.40;;;;;;;3.16;72.77;101983.27;130336;1268;108086;-79
2022/02/12 11:16:28;;;;;;;23.40;13.50;;;;;;;3.17;73.24;101985.71;130271;1268;108713;-79
2022/02/12 11:19:35;;;;;;;17.10;8.00;;;;;;;3.17;73.26;101985.00;130314;1268;108718;-79
2022/02/12 11:22:42;;;;;;;19.60;8.90;;;;;;;3.10;72.13;101982.80;130301;1268;107696;-79
2022/02/12 11:25:48;;;;;;;12.60;6.00;;;;;;;3.01;72.40;101980.38;130270;1267;107785;-80
2022/02/12 11:28:53;;;;;;;14.30;6.00;;;;;;;2.98;73.04;101976.98;130261;1268;108840;-81
2022/02/12 11:32:13;;;;;;;20.10;8.40;;;;;;;3.01;70.94;101974.73;130361;1268;107582;-81
2022/02/12 11:35:27;;;;;;;17.50;8.40;;;;;;;3.04;73.13;101968.11;130402;1268;108900;-82
2022/02/12 11:38:38;;;;;;;12.70;6.40;;;;;;;3.13;73.48;101965.09;130338;1268;108822;-82
2022/02/12 11:41:46;;;;;;;14.70;8.70;;;;;;;3.27;73.50;101965.43;130425;1268;108779;-82
2022/02/12 11:44:51;;;;;;;11.80;7.30;;;;;;;3.40;73.48;101963.80;130466;1268;108694;-79
2022/02/12 11:48:29;;;;;;;11.60;6.80;;;;;;;3.55;73.41;101960.70;130327;1268;109023;-81
2022/02/12 11:51:38;;;;;;;16.10;8.90;;;;;;;3.66;72.73;101957.05;130389;1268;107931;-83
2022/02/12 11:54:56;;;;;;;20.40;11.70;;;;;;;3.69;72.71;101951.85;130412;1268;108575;-77
2022/02/12 11:58:02;;;;;;;11.70;6.80;;;;;;;3.69;72.40;101952.39;130304;1268;108859;-78
2022/02/12 12:01:07;;;;;;;14.00;7.80;;;;;;;3.63;72.33;101951.75;130309;1268;108672;-81
2022/02/12 12:04:18;;;;;;;204.20;91.90;;;;;;;3.62;72.32;101959.70;130453;1268;109093;-78
2022/02/12 12:07:24;;;;;;;122.10;51.30;;;;;;;3.63;72.40;101967.59;130250;1268;108889;-77
2022/02/12 12:10:30;;;;;;;182.00;71.10;;;;;;;3.64;72.46;101966.31;130253;1268;108824;-76
2022/02/12 12:13:46;;;;;;;261.30;99.30;;;;;;;3.64;72.22;101964.22;130320;1268;108749;-79
2022/02/12 12:16:58;;;;;;;52.50;20.70;;;;;;;3.67;72.45;101960.89;130335;1268;108873;-77
2022/02/12 12:20:03;;;;;;;;;;;;;;;3.72;72.69;101961.21;130493;1268;107333;-77
2022/02/12 12:23:12;;;;;;;66.80;32.80;;;;;;;3.76;72.55;101957.15;130319;1268;108988;-77
2022/02/12 12:26:17;;;;;;;39.60;20.50;;;;;;;3.78;71.84;101953.73;130557;1268;109068;-74
2022/02/12 12:32:47;;;;;;;22.80;12.10;;;;;;;3.79;71.81;101950.35;130344;1267;108942;-80
2022/02/12 12:35:53;;;;;;;42.80;27.80;;;;;;;3.82;71.79;101947.92;130419;1268;108594;-80
2022/02/12 12:38:59;;;;;;;25.80;16.80;;;;;;;3.84;71.53;101939.77;130316;1268;109814;-78
2022/02/12 12:42:13;;;;;;;15.90;10.60;;;;;;;3.83;71.23;101936.77;130341;1268;107702;-79
2022/02/12 12:45:19;;;;;;;10.00;6.80;;;;;;;3.81;70.28;101940.77;130328;1268;108815;-77
2022/02/12 12:48:35;;;;;;;13.20;7.50;;;;;;;3.72;70.37;101940.80;130274;1267;108854;-77
2022/02/12 12:51:52;;;;;;;11.10;6.60;;;;;;;3.69;71.07;101941.64;130304;1268;108653;-78
2022/02/12 12:55:09;;;;;;;17.50;8.40;;;;;;;3.71;70.99;101935.91;130397;1268;107425;-79
2022/02/12 12:58:16;;;;;;;9.90;6.20;;;;;;;3.73;70.99;101938.99;131800;1267;108922;-76
2022/02/12 13:01:23;;;;;;;12.90;6.80;;;;;;;3.81;70.94;101930.92;130351;1268;108758;-78
2022/02/12 13:04:28;;;;;;;10.90;7.30;;;;;;;3.81;70.65;101922.45;130414;1268;109606;-75
2022/02/12 13:07:34;;;;;;;28.20;18.00;;;;;;;3.83;70.84;101928.15;130294;1268;107199;-77
2022/02/12 13:10:41;;;;;;;19.70;11.50;;;;;;;3.83;69.86;101926.73;130330;1268;108508;-77
2022/02/12 13:14:03;;;;;;;14.50;7.70;;;;;;;3.81;70.06;101928.09;130309;1268;108721;-77
2022/02/12 13:17:09;;;;;;;17.20;11.80;;;;;;;3.81;70.58;101925.45;130298;1268;107737;-79
2022/02/12 13:20:16;;;;;;;15.10;9.90;;;;;;;3.82;69.92;101922.60;130395;1268;108767;-79
2022/02/12 13:23:21;;;;;;;16.00;10.60;;;;;;;3.81;70.13;101917.34;130311;1268;108870;-80
2022/02/12 13:26:29;;;;;;;25.90;17.90;;;;;;;3.80;70.04;101919.34;130378;1268;108908;-80
2022/02/12 13:29:36;;;;;;;16.00;10.30;;;;;;;3.77;69.82;101918.40;130373;1268;107671;-81
2022/02/12 13:32:44;;;;;;;12.30;7.50;;;;;;;3.73;69.50;101920.70;130404;1268;108616;-81
2022/02/12 13:35:51;;;;;;;14.30;9.50;;;;;;;3.68;69.59;101914.39;130378;1268;108965;-76
2022/02/12 13:39:05;;;;;;;12.10;8.40;;;;;;;3.68;69.58;101909.13;130370;1268;107716;-80
2022/02/12 13:42:11;;;;;;;13.40;8.70;;;;;;;3.67;69.41;101907.92;130476;1268;107809;-85
2022/02/12 13:45:16;;;;;;;9.30;5.90;;;;;;;3.67;69.21;101909.70;130626;1268;108708;-81
2022/02/12 13:48:24;;;;;;;10.50;5.80;;;;;;;3.65;69.01;101900.98;130455;1268;108744;-83
2022/02/12 13:51:30;;;;;;;8.20;5.40;;;;;;;3.62;68.49;101897.23;130491;1268;107406;-83
2022/02/12 13:54:35;;;;;;;8.50;5.00;;;;;;;3.58;68.94;101897.27;130349;1268;108867;-81
2022/02/12 13:57:41;;;;;;;7.60;5.00;;;;;;;3.57;69.07;101897.14;130417;1268;108807;-80
2022/02/12 14:00:52;;;;;;;10.70;6.10;;;;;;;3.54;68.96;101893.71;131133;1267;107785;-83
2022/02/12 14:03:57;;;;;;;11.50;6.70;;;;;;;3.52;68.91;101890.42;131166;1267;109021;-80
2022/02/12 14:07:03;;;;;;;13.10;6.30;;;;;;;3.50;68.72;101893.70;130560;1265;108696;-79
2022/02/12 14:10:10;;;;;;;13.40;6.70;;;;;;;3.48;68.91;101895.58;130733;1268;107509;-79
2022/02/12 14:13:16;;;;;;;13.00;6.90;;;;;;;3.44;67.83;101898.88;130743;1268;108865;-80
2022/02/12 14:16:21;;;;;;;15.10;7.00;;;;;;;3.38;67.89;101901.48;130654;1268;108790;-82